sensor_id;sensor_type;location;lat;lon;timestamp;P1;durP1;ratioP1;P2;durP2;ratioP2
11681;SDS011;5897;42.640;23.310;2024-01-30T00:00:56;5.93;;;4.80;;
11681;SDS011;5897;42.640;23.310;2024-01-30T00:04:55;4.80;;;4.30;;
11681;SDS011;5897;42.640;23.310;2024-01-30T00:06:29;5.63;;;4.78;;
11681;SDS011;5897;42.640;23.310;2024-01-30T00:09:19;6.33;;;5.10;;
11681;SDS011;5897;42.640;23.310;2024-01-30T00:11:55;5.20;;;4.40;;
11681;SDS011;5897;42.640;23.310;2024-01-30T00:17:42;5.27;;;4.27;;
11681;SDS011;5897;42.640;23.310;2024-01-30T00:20:09;4.40;;;4.00;;
11681;SDS011;5897;42.640;23.310;2024-01-30T00:25:44;5.00;;;4.30;;
11681;SDS011;5897;42.640;23.310;2024-01-30T00:28:25;5.03;;;4.17;;
11681;SDS011;5897;42.640;23.310;2024-01-30T00:34:06;4.93;;;4.43;;
11681;SDS011;5897;42.640;23.310;2024-01-30T00:37:16;4.63;;;4.17;;
11681;SDS011;5897;42.640;23.310;2024-01-30T00:40:13;5.93;;;4.10;;
11681;SDS011;5897;42.640;23.310;2024-01-30T00:42:54;5.53;;;4.57;;
11681;SDS011;5897;42.640;23.310;2024-01-30T00:45:35;5.80;;;4.30;;
11681;SDS011;5897;42.640;23.310;2024-01-30T00:52:01;4.50;;;3.97;;
11681;SDS011;5897;42.640;23.310;2024-01-30T00:54:44;5.10;;;4.13;;
11681;SDS011;5897;42.640;23.310;2024-01-30T00:57:26;4.90;;;4.40;;
11681;SDS011;5897;42.640;23.310;2024-01-30T01:00:17;4.80;;;4.17;;
11681;SDS011;5897;42.640;23.310;2024-01-30T01:03:12;4.60;;;4.10;;
11681;SDS011;5897;42.640;23.310;2024-01-30T01:05:52;4.73;;;3.80;;
11681;SDS011;5897;42.640;23.310;2024-01-30T01:11:29;4.40;;;4.00;;
11681;SDS011;5897;42.640;23.310;2024-01-30T01:14:36;6.07;;;4.63;;
11681;SDS011;5897;42.640;23.310;2024-01-30T01:17:06;7.00;;;5.23;;
11681;SDS011;5897;42.640;23.310;2024-01-30T01:20:04;6.03;;;4.90;;
11681;SDS011;5897;42.640;23.310;2024-01-30T01:22:50;6.07;;;4.50;;
11681;SDS011;5897;42.640;23.310;2024-01-30T01:25:26;7.13;;;4.97;;
11681;SDS011;5897;42.640;23.310;2024-01-30T01:28:12;6.70;;;4.97;;
11681;SDS011;5897;42.640;23.310;2024-01-30T01:31:27;5.80;;;5.20;;
11681;SDS011;5897;42.640;23.310;2024-01-30T01:34:26;5.90;;;5.00;;
11681;SDS011;5897;42.640;23.310;2024-01-30T01:37:18;5.47;;;4.57;;
11681;SDS011;5897;42.640;23.310;2024-01-30T01:40:17;6.40;;;5.30;;
11681;SDS011;5897;42.640;23.310;2024-01-30T01:42:53;6.70;;;5.60;;
11681;SDS011;5897;42.640;23.310;2024-01-30T01:45:29;6.00;;;4.93;;
11681;SDS011;5897;42.640;23.310;2024-01-30T01:48:09;6.17;;;5.27;;
11681;SDS011;5897;42.640;23.310;2024-01-30T01:50:39;6.63;;;5.07;;
11681;SDS011;5897;42.640;23.310;2024-01-30T01:56:24;5.80;;;4.70;;
11681;SDS011;5897;42.640;23.310;2024-01-30T02:02:14;6.03;;;5.13;;
11681;SDS011;5897;42.640;23.310;2024-01-30T02:04:57;5.60;;;4.57;;
11681;SDS011;5897;42.640;23.310;2024-01-30T02:07:33;5.20;;;4.23;;
11681;SDS011;5897;42.640;23.310;2024-01-30T02:19:14;5.90;;;4.20;;
11681;SDS011;5897;42.640;23.310;2024-01-30T02:22:01;6.37;;;4.67;;
11681;SDS011;5897;42.640;23.310;2024-01-30T02:24:49;6.53;;;4.57;;
11681;SDS011;5897;42.640;23.310;2024-01-30T02:27:19;7.67;;;4.80;;
11681;SDS011;5897;42.640;23.310;2024-01-30T02:30:01;6.93;;;5.03;;
11681;SDS011;5897;42.640;23.310;2024-01-30T02:32:57;5.80;;;4.93;;
11681;SDS011;5897;42.640;23.310;2024-01-30T02:35:36;4.53;;;4.00;;
11681;SDS011;5897;42.640;23.310;2024-01-30T02:42:01;4.90;;;3.97;;
11681;SDS011;5897;42.640;23.310;2024-01-30T02:47:44;5.67;;;3.63;;
11681;SDS011;5897;42.640;23.310;2024-01-30T02:50:23;4.00;;;3.60;;
11681;SDS011;5897;42.640;23.310;2024-01-30T02:52:56;5.30;;;3.80;;
11681;SDS011;5897;42.640;23.310;2024-01-30T02:55:25;3.80;;;3.40;;
11681;SDS011;5897;42.640;23.310;2024-01-30T02:58:29;4.33;;;3.77;;
11681;SDS011;5897;42.640;23.310;2024-01-30T03:01:04;5.27;;;3.87;;
11681;SDS011;5897;42.640;23.310;2024-01-30T03:03:34;4.60;;;3.87;;
11681;SDS011;5897;42.640;23.310;2024-01-30T03:06:06;5.03;;;4.10;;
11681;SDS011;5897;42.640;23.310;2024-01-30T03:12:14;5.67;;;4.30;;
11681;SDS011;5897;42.640;23.310;2024-01-30T03:14:51;4.93;;;4.20;;
11681;SDS011;5897;42.640;23.310;2024-01-30T03:17:23;5.90;;;4.07;;
11681;SDS011;5897;42.640;23.310;2024-01-30T03:19:51;5.23;;;4.30;;
11681;SDS011;5897;42.640;23.310;2024-01-30T03:22:21;4.23;;;3.83;;
11681;SDS011;5897;42.640;23.310;2024-01-30T03:25:14;5.07;;;4.13;;
11681;SDS011;5897;42.640;23.310;2024-01-30T03:27:40;4.13;;;3.73;;
11681;SDS011;5897;42.640;23.310;2024-01-30T03:33:31;5.53;;;3.70;;
11681;SDS011;5897;42.640;23.310;2024-01-30T03:36:08;5.37;;;4.20;;
11681;SDS011;5897;42.640;23.310;2024-01-30T03:41:33;4.43;;;4.03;;
11681;SDS011;5897;42.640;23.310;2024-01-30T03:47:15;5.97;;;3.90;;
11681;SDS011;5897;42.640;23.310;2024-01-30T03:49:55;5.27;;;4.37;;
11681;SDS011;5897;42.640;23.310;2024-01-30T03:52:46;4.73;;;4.17;;
11681;SDS011;5897;42.640;23.310;2024-01-30T03:58:39;3.87;;;3.30;;
11681;SDS011;5897;42.640;23.310;2024-01-30T04:01:16;4.37;;;3.67;;
11681;SDS011;5897;42.640;23.310;2024-01-30T04:07:05;7.40;;;4.17;;
11681;SDS011;5897;42.640;23.310;2024-01-30T04:12:22;5.43;;;4.20;;
11681;SDS011;5897;42.640;23.310;2024-01-30T04:14:54;7.90;;;3.77;;
11681;SDS011;5897;42.640;23.310;2024-01-30T04:17:56;3.50;;;3.20;;
11681;SDS011;5897;42.640;23.310;2024-01-30T04:26:49;7.13;;;3.20;;
11681;SDS011;5897;42.640;23.310;2024-01-30T04:29:37;6.53;;;3.70;;
11681;SDS011;5897;42.640;23.310;2024-01-30T04:32:11;4.37;;;2.90;;
11681;SDS011;5897;42.640;23.310;2024-01-30T04:38:05;2.83;;;2.30;;
11681;SDS011;5897;42.640;23.310;2024-01-30T04:40:52;2.57;;;2.37;;
11681;SDS011;5897;42.640;23.310;2024-01-30T04:43:36;2.83;;;2.47;;
11681;SDS011;5897;42.640;23.310;2024-01-30T04:46:05;2.47;;;2.27;;
11681;SDS011;5897;42.640;23.310;2024-01-30T04:48:32;2.60;;;2.40;;
11681;SDS011;5897;42.640;23.310;2024-01-30T04:51:00;2.50;;;2.30;;
11681;SDS011;5897;42.640;23.310;2024-01-30T04:54:00;4.53;;;2.97;;
11681;SDS011;5897;42.640;23.310;2024-01-30T04:56:35;2.70;;;2.50;;
11681;SDS011;5897;42.640;23.310;2024-01-30T04:59:18;7.70;;;4.90;;
11681;SDS011;5897;42.640;23.310;2024-01-30T05:01:56;17.87;;;12.10;;
11681;SDS011;5897;42.640;23.310;2024-01-30T05:04:24;18.47;;;11.83;;
11681;SDS011;5897;42.640;23.310;2024-01-30T05:07:05;16.90;;;10.97;;
11681;SDS011;5897;42.640;23.310;2024-01-30T05:09:32;14.77;;;9.47;;
11681;SDS011;5897;42.640;23.310;2024-01-30T05:12:00;14.77;;;8.17;;
11681;SDS011;5897;42.640;23.310;2024-01-30T05:14:36;13.20;;;7.67;;
11681;SDS011;5897;42.640;23.310;2024-01-30T05:19:56;12.43;;;6.87;;
11681;SDS011;5897;42.640;23.310;2024-01-30T05:22:37;9.43;;;7.10;;
11681;SDS011;5897;42.640;23.310;2024-01-30T05:25:12;7.53;;;5.20;;
11681;SDS011;5897;42.640;23.310;2024-01-30T05:31:02;6.80;;;4.60;;
11681;SDS011;5897;42.640;23.310;2024-01-30T05:34:06;12.90;;;5.07;;
11681;SDS011;5897;42.640;23.310;2024-01-30T05:36:41;11.83;;;6.00;;
11681;SDS011;5897;42.640;23.310;2024-01-30T05:39:13;21.93;;;7.23;;
11681;SDS011;5897;42.640;23.310;2024-01-30T05:42:03;11.83;;;5.93;;
11681;SDS011;5897;42.640;23.310;2024-01-30T05:47:41;10.33;;;4.70;;
11681;SDS011;5897;42.640;23.310;2024-01-30T05:50:22;13.93;;;5.97;;
11681;SDS011;5897;42.640;23.310;2024-01-30T05:53:21;11.20;;;5.43;;
11681;SDS011;5897;42.640;23.310;2024-01-30T05:55:50;12.43;;;4.97;;
11681;SDS011;5897;42.640;23.310;2024-01-30T05:58:37;18.67;;;6.30;;
11681;SDS011;5897;42.640;23.310;2024-01-30T06:01:08;15.77;;;5.97;;
11681;SDS011;5897;42.640;23.310;2024-01-30T06:03:34;13.93;;;5.37;;
11681;SDS011;5897;42.640;23.310;2024-01-30T06:06:06;11.00;;;8.13;;
11681;SDS011;5897;42.640;23.310;2024-01-30T06:08:36;9.93;;;6.17;;
11681;SDS011;5897;42.640;23.310;2024-01-30T06:11:12;14.33;;;6.07;;
11681;SDS011;5897;42.640;23.310;2024-01-30T06:16:45;14.60;;;7.73;;
11681;SDS011;5897;42.640;23.310;2024-01-30T06:22:30;21.50;;;10.13;;
11681;SDS011;5897;42.640;23.310;2024-01-30T06:24:57;12.00;;;6.63;;
11681;SDS011;5897;42.640;23.310;2024-01-30T06:27:44;10.77;;;6.13;;
11681;SDS011;5897;42.640;23.310;2024-01-30T06:30:16;7.82;;;4.72;;
11681;SDS011;5897;42.640;23.310;2024-01-30T06:32:59;10.93;;;4.83;;
11681;SDS011;5897;42.640;23.310;2024-01-30T06:35:31;11.77;;;6.67;;
11681;SDS011;5897;42.640;23.310;2024-01-30T06:38:05;15.30;;;7.67;;
11681;SDS011;5897;42.640;23.310;2024-01-30T06:40:42;16.67;;;7.93;;
11681;SDS011;5897;42.640;23.310;2024-01-30T06:43:27;14.33;;;8.10;;
11681;SDS011;5897;42.640;23.310;2024-01-30T06:46:17;10.87;;;6.63;;
11681;SDS011;5897;42.640;23.310;2024-01-30T06:51:43;4.97;;;2.93;;
11681;SDS011;5897;42.640;23.310;2024-01-30T06:57:17;5.93;;;3.27;;
11681;SDS011;5897;42.640;23.310;2024-01-30T06:59:43;5.17;;;3.33;;
11681;SDS011;5897;42.640;23.310;2024-01-30T07:02:10;3.57;;;2.27;;
11681;SDS011;5897;42.640;23.310;2024-01-30T07:04:38;3.33;;;2.63;;
11681;SDS011;5897;42.640;23.310;2024-01-30T07:07:07;5.10;;;3.07;;
11681;SDS011;5897;42.640;23.310;2024-01-30T07:09:37;4.63;;;3.07;;
11681;SDS011;5897;42.640;23.310;2024-01-30T07:12:04;3.50;;;2.07;;
11681;SDS011;5897;42.640;23.310;2024-01-30T07:14:32;5.17;;;2.30;;
11681;SDS011;5897;42.640;23.310;2024-01-30T07:16:59;3.47;;;1.90;;
11681;SDS011;5897;42.640;23.310;2024-01-30T07:19:25;2.80;;;1.87;;
11681;SDS011;5897;42.640;23.310;2024-01-30T07:21:53;3.73;;;2.50;;
11681;SDS011;5897;42.640;23.310;2024-01-30T07:24:20;3.30;;;2.33;;
11681;SDS011;5897;42.640;23.310;2024-01-30T07:26:46;6.47;;;2.20;;
11681;SDS011;5897;42.640;23.310;2024-01-30T07:29:13;3.40;;;2.50;;
11681;SDS011;5897;42.640;23.310;2024-01-30T07:31:40;3.30;;;2.03;;
11681;SDS011;5897;42.640;23.310;2024-01-30T07:34:06;2.33;;;1.80;;
11681;SDS011;5897;42.640;23.310;2024-01-30T07:36:33;3.33;;;1.83;;
11681;SDS011;5897;42.640;23.310;2024-01-30T07:39:04;1.87;;;1.77;;
11681;SDS011;5897;42.640;23.310;2024-01-30T07:41:30;2.80;;;1.90;;
11681;SDS011;5897;42.640;23.310;2024-01-30T07:43:57;1.70;;;1.60;;
11681;SDS011;5897;42.640;23.310;2024-01-30T07:46:24;3.87;;;1.90;;
11681;SDS011;5897;42.640;23.310;2024-01-30T07:48:50;4.03;;;2.17;;
11681;SDS011;5897;42.640;23.310;2024-01-30T07:51:17;7.40;;;2.60;;
11681;SDS011;5897;42.640;23.310;2024-01-30T07:53:53;4.57;;;1.90;;
11681;SDS011;5897;42.640;23.310;2024-01-30T08:02:45;2.75;;;2.40;;
11681;SDS011;5897;42.640;23.310;2024-01-30T08:05:20;4.83;;;3.00;;
11681;SDS011;5897;42.640;23.310;2024-01-30T08:10:54;3.17;;;2.87;;
11681;SDS011;5897;42.640;23.310;2024-01-30T08:16:43;8.30;;;3.30;;
11681;SDS011;5897;42.640;23.310;2024-01-30T08:19:28;5.32;;;2.90;;
11681;SDS011;5897;42.640;23.310;2024-01-30T08:25:03;8.07;;;3.60;;
11681;SDS011;5897;42.640;23.310;2024-01-30T08:27:38;5.15;;;3.20;;
11681;SDS011;5897;42.640;23.310;2024-01-30T08:33:10;9.15;;;4.97;;
11681;SDS011;5897;42.640;23.310;2024-01-30T08:35:43;9.07;;;7.47;;
11681;SDS011;5897;42.640;23.310;2024-01-30T08:38:12;3.80;;;3.35;;
11681;SDS011;5897;42.640;23.310;2024-01-30T08:40:50;8.20;;;5.05;;
11681;SDS011;5897;42.640;23.310;2024-01-30T08:43:35;4.75;;;3.33;;
11681;SDS011;5897;42.640;23.310;2024-01-30T08:46:18;8.77;;;5.20;;
11681;SDS011;5897;42.640;23.310;2024-01-30T08:48:48;7.03;;;3.95;;
11681;SDS011;5897;42.640;23.310;2024-01-30T08:51:15;4.35;;;3.50;;
11681;SDS011;5897;42.640;23.310;2024-01-30T08:54:03;4.22;;;3.30;;
11681;SDS011;5897;42.640;23.310;2024-01-30T08:56:41;3.70;;;2.47;;
11681;SDS011;5897;42.640;23.310;2024-01-30T09:02:26;4.07;;;3.10;;
11681;SDS011;5897;42.640;23.310;2024-01-30T09:05:06;5.25;;;3.30;;
11681;SDS011;5897;42.640;23.310;2024-01-30T09:07:53;3.97;;;3.40;;
11681;SDS011;5897;42.640;23.310;2024-01-30T09:10:42;8.35;;;5.43;;
11681;SDS011;5897;42.640;23.310;2024-01-30T09:13:11;3.80;;;3.35;;
11681;SDS011;5897;42.640;23.310;2024-01-30T09:15:53;4.18;;;3.30;;
11681;SDS011;5897;42.640;23.310;2024-01-30T09:18:26;3.65;;;3.30;;
11681;SDS011;5897;42.640;23.310;2024-01-30T09:20:54;3.53;;;2.97;;
11681;SDS011;5897;42.640;23.310;2024-01-30T09:23:26;7.38;;;3.10;;
11681;SDS011;5897;42.640;23.310;2024-01-30T09:25:56;5.13;;;3.00;;
11681;SDS011;5897;42.640;23.310;2024-01-30T09:28:58;4.00;;;3.60;;
11681;SDS011;5897;42.640;23.310;2024-01-30T09:31:35;7.13;;;4.18;;
11681;SDS011;5897;42.640;23.310;2024-01-30T09:34:05;4.18;;;3.35;;
11681;SDS011;5897;42.640;23.310;2024-01-30T09:39:56;5.88;;;3.53;;
11681;SDS011;5897;42.640;23.310;2024-01-30T09:42:47;5.07;;;3.33;;
11681;SDS011;5897;42.640;23.310;2024-01-30T09:48:48;4.95;;;4.07;;
11681;SDS011;5897;42.640;23.310;2024-01-30T09:51:47;13.27;;;9.40;;
11681;SDS011;5897;42.640;23.310;2024-01-30T09:54:41;40.58;;;27.85;;
11681;SDS011;5897;42.640;23.310;2024-01-30T09:57:29;5.82;;;4.80;;
11681;SDS011;5897;42.640;23.310;2024-01-30T10:03:07;34.08;;;31.30;;
11681;SDS011;5897;42.640;23.310;2024-01-30T10:05:49;4.75;;;4.32;;
11681;SDS011;5897;42.640;23.310;2024-01-30T10:11:41;6.78;;;5.72;;
11681;SDS011;5897;42.640;23.310;2024-01-30T10:14:08;6.50;;;4.38;;
11681;SDS011;5897;42.640;23.310;2024-01-30T10:16:48;10.18;;;4.50;;
11681;SDS011;5897;42.640;23.310;2024-01-30T10:19:35;6.93;;;4.30;;
11681;SDS011;5897;42.640;23.310;2024-01-30T10:22:01;8.68;;;6.38;;
11681;SDS011;5897;42.640;23.310;2024-01-30T10:30:23;7.50;;;3.80;;
11681;SDS011;5897;42.640;23.310;2024-01-30T10:33:16;4.72;;;4.10;;
11681;SDS011;5897;42.640;23.310;2024-01-30T10:36:04;5.95;;;3.83;;
11681;SDS011;5897;42.640;23.310;2024-01-30T10:39:08;6.20;;;3.65;;
11681;SDS011;5897;42.640;23.310;2024-01-30T10:42:01;6.07;;;3.78;;
11681;SDS011;5897;42.640;23.310;2024-01-30T10:45:06;4.57;;;3.60;;
11681;SDS011;5897;42.640;23.310;2024-01-30T10:48:05;5.80;;;3.85;;
11681;SDS011;5897;42.640;23.310;2024-01-30T10:50:36;7.68;;;4.03;;
11681;SDS011;5897;42.640;23.310;2024-01-30T10:53:41;7.20;;;4.47;;
11681;SDS011;5897;42.640;23.310;2024-01-30T10:56:54;3.88;;;3.50;;
11681;SDS011;5897;42.640;23.310;2024-01-30T11:00:34;5.85;;;4.00;;
11681;SDS011;5897;42.640;23.310;2024-01-30T11:03:34;5.60;;;3.92;;
11681;SDS011;5897;42.640;23.310;2024-01-30T11:06:25;5.82;;;3.88;;
11681;SDS011;5897;42.640;23.310;2024-01-30T11:12:24;5.05;;;3.50;;
11681;SDS011;5897;42.640;23.310;2024-01-30T11:16:30;5.57;;;4.40;;
11681;SDS011;5897;42.640;23.310;2024-01-30T11:18:36;10.18;;;4.80;;
11681;SDS011;5897;42.640;23.310;2024-01-30T11:24:15;7.28;;;4.40;;
11681;SDS011;5897;42.640;23.310;2024-01-30T11:26:55;4.32;;;3.20;;
11681;SDS011;5897;42.640;23.310;2024-01-30T11:29:56;7.05;;;3.42;;
11681;SDS011;5897;42.640;23.310;2024-01-30T11:33:03;4.18;;;3.08;;
11681;SDS011;5897;42.640;23.310;2024-01-30T11:35:42;5.18;;;3.28;;
11681;SDS011;5897;42.640;23.310;2024-01-30T11:38:18;6.45;;;4.78;;
11681;SDS011;5897;42.640;23.310;2024-01-30T11:41:18;5.88;;;4.75;;
11681;SDS011;5897;42.640;23.310;2024-01-30T11:53:23;4.47;;;3.97;;
11681;SDS011;5897;42.640;23.310;2024-01-30T11:56:08;3.35;;;3.05;;
11681;SDS011;5897;42.640;23.310;2024-01-30T12:02:15;6.97;;;3.78;;
11681;SDS011;5897;42.640;23.310;2024-01-30T12:05:13;4.03;;;3.03;;
11681;SDS011;5897;42.640;23.310;2024-01-30T12:07:50;3.90;;;2.83;;
11681;SDS011;5897;42.640;23.310;2024-01-30T12:10:27;7.47;;;3.95;;
11681;SDS011;5897;42.640;23.310;2024-01-30T12:16:14;3.97;;;3.15;;
11681;SDS011;5897;42.640;23.310;2024-01-30T12:19:06;3.60;;;2.75;;
11681;SDS011;5897;42.640;23.310;2024-01-30T12:21:37;3.40;;;2.95;;
11681;SDS011;5897;42.640;23.310;2024-01-30T12:24:17;3.85;;;3.10;;
11681;SDS011;5897;42.640;23.310;2024-01-30T12:26:59;5.80;;;4.45;;
11681;SDS011;5897;42.640;23.310;2024-01-30T12:29:45;4.28;;;3.67;;
11681;SDS011;5897;42.640;23.310;2024-01-30T12:32:40;5.47;;;3.28;;
11681;SDS011;5897;42.640;23.310;2024-01-30T12:35:19;3.67;;;3.17;;
11681;SDS011;5897;42.640;23.310;2024-01-30T12:37:53;4.93;;;3.58;;
11681;SDS011;5897;42.640;23.310;2024-01-30T12:40:40;4.40;;;3.40;;
11681;SDS011;5897;42.640;23.310;2024-01-30T12:43:26;6.15;;;4.38;;
11681;SDS011;5897;42.640;23.310;2024-01-30T12:48:43;4.03;;;3.08;;
11681;SDS011;5897;42.640;23.310;2024-01-30T12:51:13;4.18;;;3.30;;
11681;SDS011;5897;42.640;23.310;2024-01-30T12:54:13;6.88;;;4.15;;
11681;SDS011;5897;42.640;23.310;2024-01-30T13:02:23;4.00;;;3.60;;
11681;SDS011;5897;42.640;23.310;2024-01-30T13:05:17;4.20;;;3.65;;
11681;SDS011;5897;42.640;23.310;2024-01-30T13:07:44;3.75;;;3.28;;
11681;SDS011;5897;42.640;23.310;2024-01-30T13:10:24;3.80;;;3.50;;
11681;SDS011;5897;42.640;23.310;2024-01-30T13:13:29;6.93;;;4.97;;
11681;SDS011;5897;42.640;23.310;2024-01-30T13:15:57;7.13;;;5.28;;
11681;SDS011;5897;42.640;23.310;2024-01-30T13:18:32;5.20;;;4.70;;
11681;SDS011;5897;42.640;23.310;2024-01-30T13:21:18;6.28;;;5.15;;
11681;SDS011;5897;42.640;23.310;2024-01-30T13:23:58;4.57;;;3.78;;
11681;SDS011;5897;42.640;23.310;2024-01-30T13:32:06;6.40;;;4.50;;
11681;SDS011;5897;42.640;23.310;2024-01-30T13:34:47;6.40;;;4.28;;
11681;SDS011;5897;42.640;23.310;2024-01-30T13:37:24;5.80;;;4.13;;
11681;SDS011;5897;42.640;23.310;2024-01-30T13:40:11;7.05;;;4.85;;
11681;SDS011;5897;42.640;23.310;2024-01-30T13:43:11;6.13;;;4.30;;
11681;SDS011;5897;42.640;23.310;2024-01-30T13:46:23;4.65;;;4.15;;
11681;SDS011;5897;42.640;23.310;2024-01-30T13:52:21;7.10;;;5.65;;
11681;SDS011;5897;42.640;23.310;2024-01-30T13:55:21;9.00;;;4.72;;
11681;SDS011;5897;42.640;23.310;2024-01-30T13:57:57;6.65;;;4.30;;
11681;SDS011;5897;42.640;23.310;2024-01-30T14:00:41;5.60;;;4.22;;
11681;SDS011;5897;42.640;23.310;2024-01-30T14:03:36;7.10;;;4.40;;
11681;SDS011;5897;42.640;23.310;2024-01-30T14:09:33;6.30;;;4.70;;
11681;SDS011;5897;42.640;23.310;2024-01-30T14:12:18;7.90;;;3.70;;
11681;SDS011;5897;42.640;23.310;2024-01-30T14:14:52;7.82;;;4.32;;
11681;SDS011;5897;42.640;23.310;2024-01-30T14:17:29;7.55;;;4.75;;
11681;SDS011;5897;42.640;23.310;2024-01-30T14:22:39;8.07;;;4.57;;
11681;SDS011;5897;42.640;23.310;2024-01-30T14:25:24;9.90;;;4.80;;
11681;SDS011;5897;42.640;23.310;2024-01-30T14:28:07;8.02;;;4.88;;
11681;SDS011;5897;42.640;23.310;2024-01-30T14:30:39;8.35;;;4.60;;
11681;SDS011;5897;42.640;23.310;2024-01-30T14:33:07;6.35;;;4.85;;
11681;SDS011;5897;42.640;23.310;2024-01-30T14:38:41;6.47;;;4.30;;
11681;SDS011;5897;42.640;23.310;2024-01-30T14:41:54;6.70;;;4.55;;
11681;SDS011;5897;42.640;23.310;2024-01-30T14:44:39;7.68;;;5.18;;
11681;SDS011;5897;42.640;23.310;2024-01-30T14:47:21;5.15;;;4.55;;
11681;SDS011;5897;42.640;23.310;2024-01-30T14:50:11;5.85;;;4.30;;
11681;SDS011;5897;42.640;23.310;2024-01-30T15:02:55;13.70;;;5.65;;
11681;SDS011;5897;42.640;23.310;2024-01-30T15:05:53;7.97;;;5.13;;
11681;SDS011;5897;42.640;23.310;2024-01-30T15:08:26;6.90;;;5.20;;
11681;SDS011;5897;42.640;23.310;2024-01-30T15:11:09;10.00;;;5.43;;
11681;SDS011;5897;42.640;23.310;2024-01-30T15:17:11;10.20;;;5.85;;
11681;SDS011;5897;42.640;23.310;2024-01-30T15:19:56;6.25;;;5.03;;
11681;SDS011;5897;42.640;23.310;2024-01-30T15:22:34;9.60;;;4.90;;
11681;SDS011;5897;42.640;23.310;2024-01-30T15:25:04;9.55;;;5.20;;
11681;SDS011;5897;42.640;23.310;2024-01-30T15:27:34;8.75;;;4.90;;
11681;SDS011;5897;42.640;23.310;2024-01-30T15:30:06;7.28;;;4.78;;
11681;SDS011;5897;42.640;23.310;2024-01-30T15:33:03;9.02;;;5.00;;
11681;SDS011;5897;42.640;23.310;2024-01-30T15:39:04;7.93;;;5.45;;
11681;SDS011;5897;42.640;23.310;2024-01-30T15:41:36;9.10;;;4.82;;
11681;SDS011;5897;42.640;23.310;2024-01-30T15:44:03;6.18;;;4.80;;
11681;SDS011;5897;42.640;23.310;2024-01-30T15:46:34;10.10;;;4.82;;
11681;SDS011;5897;42.640;23.310;2024-01-30T15:49:01;7.78;;;5.30;;
11681;SDS011;5897;42.640;23.310;2024-01-30T15:54:59;6.60;;;4.85;;
11681;SDS011;5897;42.640;23.310;2024-01-30T15:58:01;7.40;;;4.80;;
11681;SDS011;5897;42.640;23.310;2024-01-30T16:00:28;12.40;;;6.53;;
11681;SDS011;5897;42.640;23.310;2024-01-30T16:06:24;9.20;;;5.60;;
11681;SDS011;5897;42.640;23.310;2024-01-30T16:09:05;11.63;;;6.53;;
11681;SDS011;5897;42.640;23.310;2024-01-30T16:11:32;12.95;;;6.97;;
11681;SDS011;5897;42.640;23.310;2024-01-30T16:13:59;11.40;;;6.38;;
11681;SDS011;5897;42.640;23.310;2024-01-30T16:16:25;11.27;;;6.93;;
11681;SDS011;5897;42.640;23.310;2024-01-30T16:18:52;9.63;;;7.47;;
11681;SDS011;5897;42.640;23.310;2024-01-30T16:21:19;13.82;;;8.55;;
11681;SDS011;5897;42.640;23.310;2024-01-30T16:23:45;17.58;;;11.27;;
11681;SDS011;5897;42.640;23.310;2024-01-30T16:26:13;18.63;;;11.00;;
11681;SDS011;5897;42.640;23.310;2024-01-30T16:28:40;29.63;;;15.63;;
11681;SDS011;5897;42.640;23.310;2024-01-30T16:31:14;22.53;;;13.63;;
11681;SDS011;5897;42.640;23.310;2024-01-30T16:33:45;24.92;;;15.88;;
11681;SDS011;5897;42.640;23.310;2024-01-30T16:36:12;20.85;;;14.85;;
11681;SDS011;5897;42.640;23.310;2024-01-30T16:38:41;25.23;;;15.27;;
11681;SDS011;5897;42.640;23.310;2024-01-30T16:44:32;19.73;;;14.00;;
11681;SDS011;5897;42.640;23.310;2024-01-30T16:47:24;21.13;;;14.60;;
11681;SDS011;5897;42.640;23.310;2024-01-30T16:53:00;24.85;;;14.98;;
11681;SDS011;5897;42.640;23.310;2024-01-30T16:56:02;18.57;;;11.90;;
11681;SDS011;5897;42.640;23.310;2024-01-30T16:58:50;27.65;;;14.00;;
11681;SDS011;5897;42.640;23.310;2024-01-30T17:01:37;25.90;;;13.33;;
11681;SDS011;5897;42.640;23.310;2024-01-30T17:04:14;20.13;;;13.35;;
11681;SDS011;5897;42.640;23.310;2024-01-30T17:06:54;18.80;;;12.17;;
11681;SDS011;5897;42.640;23.310;2024-01-30T17:10:02;13.17;;;9.47;;
11681;SDS011;5897;42.640;23.310;2024-01-30T17:13:00;16.20;;;10.53;;
11681;SDS011;5897;42.640;23.310;2024-01-30T17:15:39;12.70;;;8.43;;
11681;SDS011;5897;42.640;23.310;2024-01-30T17:26:43;25.80;;;15.07;;
11681;SDS011;5897;42.640;23.310;2024-01-30T17:29:37;29.20;;;16.30;;
11681;SDS011;5897;42.640;23.310;2024-01-30T17:32:28;24.57;;;15.27;;
11681;SDS011;5897;42.640;23.310;2024-01-30T17:35:39;19.27;;;11.47;;
11681;SDS011;5897;42.640;23.310;2024-01-30T17:38:20;20.03;;;12.10;;
11681;SDS011;5897;42.640;23.310;2024-01-30T17:40:50;21.90;;;13.20;;
11681;SDS011;5897;42.640;23.310;2024-01-30T17:43:28;14.80;;;10.93;;
11681;SDS011;5897;42.640;23.310;2024-01-30T17:46:16;15.93;;;10.60;;
11681;SDS011;5897;42.640;23.310;2024-01-30T17:48:45;17.27;;;10.07;;
11681;SDS011;5897;42.640;23.310;2024-01-30T17:51:27;14.10;;;9.43;;
11681;SDS011;5897;42.640;23.310;2024-01-30T17:57:37;26.93;;;14.53;;
11681;SDS011;5897;42.640;23.310;2024-01-30T18:00:06;25.93;;;14.43;;
11681;SDS011;5897;42.640;23.310;2024-01-30T18:02:33;23.83;;;15.27;;
11681;SDS011;5897;42.640;23.310;2024-01-30T18:05:05;16.90;;;11.70;;
11681;SDS011;5897;42.640;23.310;2024-01-30T18:08:11;13.97;;;9.70;;
11681;SDS011;5897;42.640;23.310;2024-01-30T18:10:53;13.93;;;10.37;;
11681;SDS011;5897;42.640;23.310;2024-01-30T18:13:20;15.63;;;10.23;;
11681;SDS011;5897;42.640;23.310;2024-01-30T18:15:52;12.10;;;9.47;;
11681;SDS011;5897;42.640;23.310;2024-01-30T18:18:35;10.63;;;8.00;;
11681;SDS011;5897;42.640;23.310;2024-01-30T18:21:07;10.03;;;7.80;;
11681;SDS011;5897;42.640;23.310;2024-01-30T18:23:51;10.27;;;8.00;;
11681;SDS011;5897;42.640;23.310;2024-01-30T18:26:27;10.83;;;8.47;;
11681;SDS011;5897;42.640;23.310;2024-01-30T18:29:12;13.27;;;8.10;;
11681;SDS011;5897;42.640;23.310;2024-01-30T18:31:47;11.43;;;7.47;;
11681;SDS011;5897;42.640;23.310;2024-01-30T18:34:17;10.73;;;8.10;;
11681;SDS011;5897;42.640;23.310;2024-01-30T18:36:51;12.37;;;8.93;;
11681;SDS011;5897;42.640;23.310;2024-01-30T18:42:54;17.47;;;10.63;;
11681;SDS011;5897;42.640;23.310;2024-01-30T18:45:21;25.57;;;15.87;;
11681;SDS011;5897;42.640;23.310;2024-01-30T18:48:11;15.03;;;10.77;;
11681;SDS011;5897;42.640;23.310;2024-01-30T18:51:15;14.20;;;9.87;;
11681;SDS011;5897;42.640;23.310;2024-01-30T18:59:32;16.80;;;11.43;;
11681;SDS011;5897;42.640;23.310;2024-01-30T19:02:27;15.37;;;10.97;;
11681;SDS011;5897;42.640;23.310;2024-01-30T19:05:05;19.43;;;11.03;;
11681;SDS011;5897;42.640;23.310;2024-01-30T19:08:16;17.20;;;11.37;;
11681;SDS011;5897;42.640;23.310;2024-01-30T19:10:53;14.47;;;10.03;;
11681;SDS011;5897;42.640;23.310;2024-01-30T19:13:46;16.33;;;11.83;;
11681;SDS011;5897;42.640;23.310;2024-01-30T19:19:13;17.40;;;12.73;;
11681;SDS011;5897;42.640;23.310;2024-01-30T19:21:51;19.20;;;13.73;;
11681;SDS011;5897;42.640;23.310;2024-01-30T19:24:30;19.40;;;13.03;;
11681;SDS011;5897;42.640;23.310;2024-01-30T19:31:27;12.93;;;9.13;;
11681;SDS011;5897;42.640;23.310;2024-01-30T19:34:07;13.17;;;8.70;;
11681;SDS011;5897;42.640;23.310;2024-01-30T19:37:14;13.97;;;9.43;;
11681;SDS011;5897;42.640;23.310;2024-01-30T19:39:57;11.63;;;8.17;;
11681;SDS011;5897;42.640;23.310;2024-01-30T19:42:54;9.87;;;7.40;;
11681;SDS011;5897;42.640;23.310;2024-01-30T19:45:47;11.50;;;8.20;;
11681;SDS011;5897;42.640;23.310;2024-01-30T19:48:27;14.20;;;10.13;;
11681;SDS011;5897;42.640;23.310;2024-01-30T19:56:39;16.67;;;10.27;;
11681;SDS011;5897;42.640;23.310;2024-01-30T20:01:50;20.47;;;10.60;;
11681;SDS011;5897;42.640;23.310;2024-01-30T20:04:47;19.40;;;10.20;;